sensor_id;sensor_type;location;lat;lon;timestamp;temperature;humidity
60234;DHT22;49514;43.538;-5.708;2023-04-24T00:01:32;14.70;99.90
60234;DHT22;49514;43.538;-5.708;2023-04-24T00:04:00;14.70;99.90
60234;DHT22;49514;43.538;-5.708;2023-04-24T00:06:29;14.60;99.90
60234;DHT22;49514;43.538;-5.708;2023-04-24T00:09:00;14.70;99.90
60234;DHT22;49514;43.538;-5.708;2023-04-24T00:11:27;14.70;99.90
60234;DHT22;49514;43.538;-5.708;2023-04-24T00:13:54;14.70;99.90
60234;DHT22;49514;43.538;-5.708;2023-04-24T00:16:21;14.70;99.90
60234;DHT22;49514;43.538;-5.708;2023-04-24T00:18:48;14.70;99.90
60234;DHT22;49514;43.538;-5.708;2023-04-24T00:21:15;14.70;99.90
60234;DHT22;49514;43.538;-5.708;2023-04-24T00:23:44;14.70;99.90
60234;DHT22;49514;43.538;-5.708;2023-04-24T00:26:11;14.70;99.90
60234;DHT22;49514;43.538;-5.708;2023-04-24T00:28:38;14.70;99.90
60234;DHT22;49514;43.538;-5.708;2023-04-24T00:31:05;14.70;99.90
60234;DHT22;49514;43.538;-5.708;2023-04-24T00:33:31;14.70;99.90
60234;DHT22;49514;43.538;-5.708;2023-04-24T00:35:58;14.70;99.90
60234;DHT22;49514;43.538;-5.708;2023-04-24T00:38:25;14.70;99.90
60234;DHT22;49514;43.538;-5.708;2023-04-24T00:40:51;14.70;99.90
60234;DHT22;49514;43.538;-5.708;2023-04-24T00:43:20;14.70;99.90
60234;DHT22;49514;43.538;-5.708;2023-04-24T00:45:47;14.60;99.90
60234;DHT22;49514;43.538;-5.708;2023-04-24T00:48:14;14.70;99.90
60234;DHT22;49514;43.538;-5.708;2023-04-24T00:50:41;14.70;99.90
60234;DHT22;49514;43.538;-5.708;2023-04-24T00:53:08;14.70;99.90
60234;DHT22;49514;43.538;-5.708;2023-04-24T00:55:35;14.70;99.90
60234;DHT22;49514;43.538;-5.708;2023-04-24T00:58:03;14.70;99.90
60234;DHT22;49514;43.538;-5.708;2023-04-24T01:00:31;14.70;99.90
60234;DHT22;49514;43.538;-5.708;2023-04-24T01:02:59;14.70;99.90
60234;DHT22;49514;43.538;-5.708;2023-04-24T01:05:28;14.70;99.90
60234;DHT22;49514;43.538;-5.708;2023-04-24T01:07:54;14.60;99.90
60234;DHT22;49514;43.538;-5.708;2023-04-24T01:10:22;14.70;99.90
60234;DHT22;49514;43.538;-5.708;2023-04-24T01:12:50;14.70;99.90
60234;DHT22;49514;43.538;-5.708;2023-04-24T01:15:17;14.60;99.90
60234;DHT22;49514;43.538;-5.708;2023-04-24T01:17:44;14.60;99.90
60234;DHT22;49514;43.538;-5.708;2023-04-24T01:20:12;14.70;99.90
60234;DHT22;49514;43.538;-5.708;2023-04-24T01:22:42;14.60;99.90
60234;DHT22;49514;43.538;-5.708;2023-04-24T01:25:09;14.60;99.90
60234;DHT22;49514;43.538;-5.708;2023-04-24T01:27:35;14.60;99.90
60234;DHT22;49514;43.538;-5.708;2023-04-24T01:30:02;14.60;99.90
60234;DHT22;49514;43.538;-5.708;2023-04-24T01:32:31;14.60;99.90
60234;DHT22;49514;43.538;-5.708;2023-04-24T01:34:58;14.60;99.90
60234;DHT22;49514;43.538;-5.708;2023-04-24T01:37:24;14.60;99.90
60234;DHT22;49514;43.538;-5.708;2023-04-24T01:39:53;14.60;99.90
60234;DHT22;49514;43.538;-5.708;2023-04-24T01:42:20;14.60;99.90
60234;DHT22;49514;43.538;-5.708;2023-04-24T01:44:47;14.50;99.90
60234;DHT22;49514;43.538;-5.708;2023-04-24T01:47:13;14.60;99.90
60234;DHT22;49514;43.538;-5.708;2023-04-24T01:49:40;14.60;99.90
60234;DHT22;49514;43.538;-5.708;2023-04-24T01:52:07;14.60;99.90
60234;DHT22;49514;43.538;-5.708;2023-04-24T01:54:34;14.50;99.90
60234;DHT22;49514;43.538;-5.708;2023-04-24T01:57:02;14.50;99.90
60234;DHT22;49514;43.538;-5.708;2023-04-24T01:59:29;14.50;99.90
60234;DHT22;49514;43.538;-5.708;2023-04-24T02:01:57;14.50;99.90
60234;DHT22;49514;43.538;-5.708;2023-04-24T02:04:24;14.50;99.90
60234;DHT22;49514;43.538;-5.708;2023-04-24T02:06:50;14.50;99.90
60234;DHT22;49514;43.538;-5.708;2023-04-24T02:09:17;14.50;99.90
60234;DHT22;49514;43.538;-5.708;2023-04-24T02:11:44;14.50;99.90
60234;DHT22;49514;43.538;-5.708;2023-04-24T02:14:11;14.50;99.90
60234;DHT22;49514;43.538;-5.708;2023-04-24T02:16:40;14.50;99.90
60234;DHT22;49514;43.538;-5.708;2023-04-24T02:19:06;14.50;99.90
60234;DHT22;49514;43.538;-5.708;2023-04-24T02:21:33;14.50;99.90
60234;DHT22;49514;43.538;-5.708;2023-04-24T02:24:01;14.50;99.90
60234;DHT22;49514;43.538;-5.708;2023-04-24T02:26:28;14.50;99.90
60234;DHT22;49514;43.538;-5.708;2023-04-24T02:28:55;14.50;99.90
60234;DHT22;49514;43.538;-5.708;2023-04-24T02:31:21;14.40;99.90
60234;DHT22;49514;43.538;-5.708;2023-04-24T02:33:49;14.50;99.90
60234;DHT22;49514;43.538;-5.708;2023-04-24T02:36:15;14.50;99.90
60234;DHT22;49514;43.538;-5.708;2023-04-24T02:38:42;14.40;99.90
60234;DHT22;49514;43.538;-5.708;2023-04-24T02:41:09;14.40;99.90
60234;DHT22;49514;43.538;-5.708;2023-04-24T02:43:35;14.30;99.90
60234;DHT22;49514;43.538;-5.708;2023-04-24T02:46:02;14.20;99.90
60234;DHT22;49514;43.538;-5.708;2023-04-24T02:48:29;14.20;99.90
60234;DHT22;49514;43.538;-5.708;2023-04-24T02:50:55;14.30;99.90
60234;DHT22;49514;43.538;-5.708;2023-04-24T02:53:23;14.30;99.90
60234;DHT22;49514;43.538;-5.708;2023-04-24T02:55:50;14.30;99.90
60234;DHT22;49514;43.538;-5.708;2023-04-24T02:58:17;14.30;99.90
60234;DHT22;49514;43.538;-5.708;2023-04-24T03:01:12;14.30;99.90
60234;DHT22;49514;43.538;-5.708;2023-04-24T03:03:39;14.30;99.90
60234;DHT22;49514;43.538;-5.708;2023-04-24T03:06:06;14.40;99.90
60234;DHT22;49514;43.538;-5.708;2023-04-24T03:08:34;14.40;99.90
60234;DHT22;49514;43.538;-5.708;2023-04-24T03:11:02;14.40;99.90
60234;DHT22;49514;43.538;-5.708;2023-04-24T03:13:29;14.40;99.90
60234;DHT22;49514;43.538;-5.708;2023-04-24T03:15:55;14.40;99.90
60234;DHT22;49514;43.538;-5.708;2023-04-24T03:18:22;14.40;99.90
60234;DHT22;49514;43.538;-5.708;2023-04-24T03:20:50;14.30;99.90
60234;DHT22;49514;43.538;-5.708;2023-04-24T03:23:17;14.30;99.90
60234;DHT22;49514;43.538;-5.708;2023-04-24T03:25:44;14.30;99.90
60234;DHT22;49514;43.538;-5.708;2023-04-24T03:28:12;14.30;99.90
60234;DHT22;49514;43.538;-5.708;2023-04-24T03:30:42;14.30;99.90
60234;DHT22;49514;43.538;-5.708;2023-04-24T03:33:10;14.30;99.90
60234;DHT22;49514;43.538;-5.708;2023-04-24T03:35:42;14.30;99.90
60234;DHT22;49514;43.538;-5.708;2023-04-24T03:38:11;14.30;99.90
60234;DHT22;49514;43.538;-5.708;2023-04-24T03:40:44;14.20;99.90
60234;DHT22;49514;43.538;-5.708;2023-04-24T03:43:27;14.20;99.90
60234;DHT22;49514;43.538;-5.708;2023-04-24T03:45:55;14.20;99.90
60234;DHT22;49514;43.538;-5.708;2023-04-24T03:48:22;14.20;99.90
60234;DHT22;49514;43.538;-5.708;2023-04-24T03:50:49;14.20;99.90
60234;DHT22;49514;43.538;-5.708;2023-04-24T03:53:16;14.20;99.90
60234;DHT22;49514;43.538;-5.708;2023-04-24T03:55:49;14.20;99.90
60234;DHT22;49514;43.538;-5.708;2023-04-24T03:58:15;14.20;99.90
60234;DHT22;49514;43.538;-5.708;2023-04-24T04:00:43;14.20;99.90
60234;DHT22;49514;43.538;-5.708;2023-04-24T04:03:30;14.20;99.90
60234;DHT22;49514;43.538;-5.708;2023-04-24T04:05:57;14.20;99.90
60234;DHT22;49514;43.538;-5.708;2023-04-24T04:08:24;14.20;99.90
60234;DHT22;49514;43.538;-5.708;2023-04-24T04:10:51;14.20;99.90
60234;DHT22;49514;43.538;-5.708;2023-04-24T04:13:17;14.20;99.90
60234;DHT22;49514;43.538;-5.708;2023-04-24T04:15:44;14.20;99.90
60234;DHT22;49514;43.538;-5.708;2023-04-24T04:18:12;14.10;99.90
60234;DHT22;49514;43.538;-5.708;2023-04-24T04:20:39;14.10;99.90
60234;DHT22;49514;43.538;-5.708;2023-04-24T04:23:06;14.10;99.90
60234;DHT22;49514;43.538;-5.708;2023-04-24T04:25:42;14.10;99.90
60234;DHT22;49514;43.538;-5.708;2023-04-24T04:28:09;14.00;99.90
60234;DHT22;49514;43.538;-5.708;2023-04-24T04:30:36;14.00;99.90
60234;DHT22;49514;43.538;-5.708;2023-04-24T04:33:05;14.00;99.90
60234;DHT22;49514;43.538;-5.708;2023-04-24T04:35:32;14.00;99.90
60234;DHT22;49514;43.538;-5.708;2023-04-24T04:37:59;14.00;99.90
60234;DHT22;49514;43.538;-5.708;2023-04-24T04:40:41;14.00;99.90
60234;DHT22;49514;43.538;-5.708;2023-04-24T04:43:08;13.90;99.90
60234;DHT22;49514;43.538;-5.708;2023-04-24T04:45:47;13.90;99.90
60234;DHT22;49514;43.538;-5.708;2023-04-24T04:48:43;13.90;99.90
60234;DHT22;49514;43.538;-5.708;2023-04-24T04:51:10;14.00;99.90
60234;DHT22;49514;43.538;-5.708;2023-04-24T04:53:37;14.00;99.90
60234;DHT22;49514;43.538;-5.708;2023-04-24T04:56:04;14.10;99.90
60234;DHT22;49514;43.538;-5.708;2023-04-24T04:58:38;14.00;99.90
60234;DHT22;49514;43.538;-5.708;2023-04-24T05:01:09;14.00;99.90
60234;DHT22;49514;43.538;-5.708;2023-04-24T05:03:42;14.00;99.90
60234;DHT22;49514;43.538;-5.708;2023-04-24T05:06:12;14.00;99.90
60234;DHT22;49514;43.538;-5.708;2023-04-24T05:08:39;14.10;99.90
60234;DHT22;49514;43.538;-5.708;2023-04-24T05:11:09;14.00;99.90
60234;DHT22;49514;43.538;-5.708;2023-04-24T05:13:37;14.10;99.90
60234;DHT22;49514;43.538;-5.708;2023-04-24T05:16:07;14.10;99.90
60234;DHT22;49514;43.538;-5.708;2023-04-24T05:18:34;14.00;99.90
60234;DHT22;49514;43.538;-5.708;2023-04-24T05:21:01;14.10;99.90
60234;DHT22;49514;43.538;-5.708;2023-04-24T05:23:28;14.10;99.90
60234;DHT22;49514;43.538;-5.708;2023-04-24T05:25:56;14.10;99.90
60234;DHT22;49514;43.538;-5.708;2023-04-24T05:28:23;14.10;99.90
60234;DHT22;49514;43.538;-5.708;2023-04-24T05:31:03;14.10;99.90
60234;DHT22;49514;43.538;-5.708;2023-04-24T05:33:30;14.10;99.90
60234;DHT22;49514;43.538;-5.708;2023-04-24T05:35:57;14.10;99.90
60234;DHT22;49514;43.538;-5.708;2023-04-24T05:38:24;14.10;99.90
60234;DHT22;49514;43.538;-5.708;2023-04-24T05:40:51;14.10;99.90
60234;DHT22;49514;43.538;-5.708;2023-04-24T05:43:17;14.10;99.90
60234;DHT22;49514;43.538;-5.708;2023-04-24T05:45:44;14.10;99.90
60234;DHT22;49514;43.538;-5.708;2023-04-24T05:48:11;14.10;99.90
60234;DHT22;49514;43.538;-5.708;2023-04-24T05:50:37;14.10;99.90
60234;DHT22;49514;43.538;-5.708;2023-04-24T05:53:04;14.10;99.90
60234;DHT22;49514;43.538;-5.708;2023-04-24T05:55:35;14.20;99.90
60234;DHT22;49514;43.538;-5.708;2023-04-24T05:58:02;14.20;99.90
60234;DHT22;49514;43.538;-5.708;2023-04-24T06:00:29;14.20;99.90
60234;DHT22;49514;43.538;-5.708;2023-04-24T06:03:03;14.30;99.90
60234;DHT22;49514;43.538;-5.708;2023-04-24T06:05:32;14.40;99.90
60234;DHT22;49514;43.538;-5.708;2023-04-24T06:07:59;14.40;99.90
60234;DHT22;49514;43.538;-5.708;2023-04-24T06:10:30;14.40;99.90
60234;DHT22;49514;43.538;-5.708;2023-04-24T06:12:58;14.50;99.90
60234;DHT22;49514;43.538;-5.708;2023-04-24T06:15:30;14.60;99.90
60234;DHT22;49514;43.538;-5.708;2023-04-24T06:18:05;14.60;99.90
60234;DHT22;49514;43.538;-5.708;2023-04-24T06:20:31;14.70;99.90
60234;DHT22;49514;43.538;-5.708;2023-04-24T06:22:58;14.70;99.90
60234;DHT22;49514;43.538;-5.708;2023-04-24T06:25:25;14.70;99.90
60234;DHT22;49514;43.538;-5.708;2023-04-24T06:27:54;14.70;99.90
60234;DHT22;49514;43.538;-5.708;2023-04-24T06:30:21;14.80;99.90
60234;DHT22;49514;43.538;-5.708;2023-04-24T06:32:47;14.80;99.90
60234;DHT22;49514;43.538;-5.708;2023-04-24T06:35:15;14.80;99.90
60234;DHT22;49514;43.538;-5.708;2023-04-24T06:37:43;14.80;99.90
60234;DHT22;49514;43.538;-5.708;2023-04-24T06:40:09;14.80;99.90
60234;DHT22;49514;43.538;-5.708;2023-04-24T06:42:36;14.80;99.90
60234;DHT22;49514;43.538;-5.708;2023-04-24T06:45:04;14.80;99.90
60234;DHT22;49514;43.538;-5.708;2023-04-24T06:47:32;14.80;99.90
60234;DHT22;49514;43.538;-5.708;2023-04-24T06:49:59;14.80;99.90
60234;DHT22;49514;43.538;-5.708;2023-04-24T06:52:25;14.90;99.90
60234;DHT22;49514;43.538;-5.708;2023-04-24T06:54:52;14.80;99.90
60234;DHT22;49514;43.538;-5.708;2023-04-24T06:57:19;14.90;99.90
60234;DHT22;49514;43.538;-5.708;2023-04-24T06:59:46;14.90;99.90
60234;DHT22;49514;43.538;-5.708;2023-04-24T07:02:13;15.00;99.90
60234;DHT22;49514;43.538;-5.708;2023-04-24T07:04:40;15.00;99.90
60234;DHT22;49514;43.538;-5.708;2023-04-24T07:07:07;15.00;99.90
60234;DHT22;49514;43.538;-5.708;2023-04-24T07:09:35;15.00;99.90
60234;DHT22;49514;43.538;-5.708;2023-04-24T07:12:05;15.10;99.90
60234;DHT22;49514;43.538;-5.708;2023-04-24T07:14:32;15.10;99.90
60234;DHT22;49514;43.538;-5.708;2023-04-24T07:16:58;15.10;99.90
60234;DHT22;49514;43.538;-5.708;2023-04-24T07:19:25;15.10;99.90
60234;DHT22;49514;43.538;-5.708;2023-04-24T07:21:52;15.20;99.90
60234;DHT22;49514;43.538;-5.708;2023-04-24T07:24:19;15.30;99.90
60234;DHT22;49514;43.538;-5.708;2023-04-24T07:26:46;15.30;99.90
60234;DHT22;49514;43.538;-5.708;2023-04-24T07:29:12;15.40;99.90
60234;DHT22;49514;43.538;-5.708;2023-04-24T07:31:39;15.50;99.90
60234;DHT22;49514;43.538;-5.708;2023-04-24T07:34:07;15.60;99.90
60234;DHT22;49514;43.538;-5.708;2023-04-24T07:36:33;15.60;99.90
60234;DHT22;49514;43.538;-5.708;2023-04-24T07:39:00;15.70;99.90
60234;DHT22;49514;43.538;-5.708;2023-04-24T07:41:26;15.80;99.90
60234;DHT22;49514;43.538;-5.708;2023-04-24T07:43:54;15.90;99.90
60234;DHT22;49514;43.538;-5.708;2023-04-24T07:46:21;16.00;99.90
60234;DHT22;49514;43.538;-5.708;2023-04-24T07:48:47;16.00;99.90
60234;DHT22;49514;43.538;-5.708;2023-04-24T07:51:14;16.10;99.90
60234;DHT22;49514;43.538;-5.708;2023-04-24T07:53:41;16.10;99.90
60234;DHT22;49514;43.538;-5.708;2023-04-24T07:56:07;16.20;99.90
60234;DHT22;49514;43.538;-5.708;2023-04-24T07:58:34;16.30;99.90
60234;DHT22;49514;43.538;-5.708;2023-04-24T08:01:00;16.40;99.90
60234;DHT22;49514;43.538;-5.708;2023-04-24T08:03:27;16.40;99.90
60234;DHT22;49514;43.538;-5.708;2023-04-24T08:05:53;16.50;99.90
60234;DHT22;49514;43.538;-5.708;2023-04-24T08:08:20;16.50;99.90
60234;DHT22;49514;43.538;-5.708;2023-04-24T08:10:47;16.60;99.90
60234;DHT22;49514;43.538;-5.708;2023-04-24T08:13:13;16.60;99.90
60234;DHT22;49514;43.538;-5.708;2023-04-24T08:15:40;16.80;99.90
60234;DHT22;49514;43.538;-5.708;2023-04-24T08:18:06;16.90;99.90
60234;DHT22;49514;43.538;-5.708;2023-04-24T08:20:33;17.10;99.90
60234;DHT22;49514;43.538;-5.708;2023-04-24T08:22:59;17.20;99.90
60234;DHT22;49514;43.538;-5.708;2023-04-24T08:25:25;17.30;99.90
60234;DHT22;49514;43.538;-5.708;2023-04-24T08:27:52;17.50;99.90
60234;DHT22;49514;43.538;-5.708;2023-04-24T08:30:18;17.70;99.90
60234;DHT22;49514;43.538;-5.708;2023-04-24T08:32:46;18.00;99.90
60234;DHT22;49514;43.538;-5.708;2023-04-24T08:35:12;18.20;99.90
60234;DHT22;49514;43.538;-5.708;2023-04-24T08:37:39;18.20;99.90
60234;DHT22;49514;43.538;-5.708;2023-04-24T08:40:06;18.20;99.90
60234;DHT22;49514;43.538;-5.708;2023-04-24T08:42:35;18.00;99.90
60234;DHT22;49514;43.538;-5.708;2023-04-24T08:45:03;17.80;99.90
60234;DHT22;49514;43.538;-5.708;2023-04-24T08:47:29;17.70;99.90
60234;DHT22;49514;43.538;-5.708;2023-04-24T08:49:56;17.60;99.90
60234;DHT22;49514;43.538;-5.708;2023-04-24T08:52:23;17.50;99.90
60234;DHT22;49514;43.538;-5.708;2023-04-24T08:54:49;17.50;99.90
60234;DHT22;49514;43.538;-5.708;2023-04-24T08:57:15;17.50;99.90
60234;DHT22;49514;43.538;-5.708;2023-04-24T08:59:42;17.50;99.90
60234;DHT22;49514;43.538;-5.708;2023-04-24T09:02:09;17.60;99.90
60234;DHT22;49514;43.538;-5.708;2023-04-24T09:04:36;17.60;99.90
60234;DHT22;49514;43.538;-5.708;2023-04-24T09:07:03;17.60;99.90
60234;DHT22;49514;43.538;-5.708;2023-04-24T09:09:31;17.70;99.90
60234;DHT22;49514;43.538;-5.708;2023-04-24T09:11:58;17.70;99.90
60234;DHT22;49514;43.538;-5.708;2023-04-24T09:14:25;17.60;99.90
60234;DHT22;49514;43.538;-5.708;2023-04-24T09:16:52;17.60;99.90
60234;DHT22;49514;43.538;-5.708;2023-04-24T09:19:18;17.60;99.90
60234;DHT22;49514;43.538;-5.708;2023-04-24T09:21:45;17.60;99.90
60234;DHT22;49514;43.538;-5.708;2023-04-24T09:24:15;17.60;99.90
60234;DHT22;49514;43.538;-5.708;2023-04-24T09:26:44;17.70;99.90
60234;DHT22;49514;43.538;-5.708;2023-04-24T09:29:14;17.90;99.90
60234;DHT22;49514;43.538;-5.708;2023-04-24T09:31:41;18.10;99.90
60234;DHT22;49514;43.538;-5.708;2023-04-24T09:34:07;18.20;99.90
60234;DHT22;49514;43.538;-5.708;2023-04-24T09:36:35;18.40;99.90
60234;DHT22;49514;43.538;-5.708;2023-04-24T09:39:06;18.60;99.90
60234;DHT22;49514;43.538;-5.708;2023-04-24T09:41:57;18.80;99.90
60234;DHT22;49514;43.538;-5.708;2023-04-24T09:44:25;18.90;99.90
60234;DHT22;49514;43.538;-5.708;2023-04-24T09:46:55;19.00;99.90
60234;DHT22;49514;43.538;-5.708;2023-04-24T09:49:26;19.10;99.90
60234;DHT22;49514;43.538;-5.708;2023-04-24T09:52:02;19.20;99.90
60234;DHT22;49514;43.538;-5.708;2023-04-24T09:54:28;19.40;99.90
60234;DHT22;49514;43.538;-5.708;2023-04-24T09:56:55;19.40;99.90
60234;DHT22;49514;43.538;-5.708;2023-04-24T09:59:22;19.50;99.90
60234;DHT22;49514;43.538;-5.708;2023-04-24T10:01:49;19.50;99.90
60234;DHT22;49514;43.538;-5.708;2023-04-24T10:04:25;19.60;99.90
60234;DHT22;49514;43.538;-5.708;2023-04-24T10:06:52;19.80;99.90
60234;DHT22;49514;43.538;-5.708;2023-04-24T10:09:19;20.00;99.90
60234;DHT22;49514;43.538;-5.708;2023-04-24T10:11:47;20.20;99.90
60234;DHT22;49514;43.538;-5.708;2023-04-24T10:14:17;20.50;99.90
60234;DHT22;49514;43.538;-5.708;2023-04-24T10:16:44;20.60;99.90
60234;DHT22;49514;43.538;-5.708;2023-04-24T10:19:15;20.80;99.90
60234;DHT22;49514;43.538;-5.708;2023-04-24T10:21:44;21.10;99.90
60234;DHT22;49514;43.538;-5.708;2023-04-24T10:24:14;21.20;99.90
60234;DHT22;49514;43.538;-5.708;2023-04-24T10:26:42;21.40;99.90
60234;DHT22;49514;43.538;-5.708;2023-04-24T10:29:09;21.70;99.90
60234;DHT22;49514;43.538;-5.708;2023-04-24T10:31:38;21.90;99.90
60234;DHT22;49514;43.538;-5.708;2023-04-24T10:34:05;22.00;99.90
60234;DHT22;49514;43.538;-5.708;2023-04-24T10:36:36;22.20;99.90
60234;DHT22;49514;43.538;-5.708;2023-04-24T10:39:06;22.30;99.90
60234;DHT22;49514;43.538;-5.708;2023-04-24T10:41:36;22.80;99.90
60234;DHT22;49514;43.538;-5.708;2023-04-24T10:44:12;23.00;99.90
60234;DHT22;49514;43.538;-5.708;2023-04-24T10:46:43;23.10;99.90
60234;DHT22;49514;43.538;-5.708;2023-04-24T10:49:09;22.60;99.90
60234;DHT22;49514;43.538;-5.708;2023-04-24T10:51:46;22.50;99.90
60234;DHT22;49514;43.538;-5.708;2023-04-24T10:54:23;22.50;99.90
60234;DHT22;49514;43.538;-5.708;2023-04-24T10:56:52;22.80;99.90
60234;DHT22;49514;43.538;-5.708;2023-04-24T10:59:34;22.80;99.90
60234;DHT22;49514;43.538;-5.708;2023-04-24T11:02:01;23.00;99.90
60234;DHT22;49514;43.538;-5.708;2023-04-24T11:04:31;23.20;99.90
60234;DHT22;49514;43.538;-5.708;2023-04-24T11:06:57;23.30;99.90
60234;DHT22;49514;43.538;-5.708;2023-04-24T11:09:26;23.40;99.90
60234;DHT22;49514;43.538;-5.708;2023-04-24T11:11:53;23.40;99.90
60234;DHT22;49514;43.538;-5.708;2023-04-24T11:14:28;23.50;99.90
60234;DHT22;49514;43.538;-5.708;2023-04-24T11:16:55;23.60;99.90
60234;DHT22;49514;43.538;-5.708;2023-04-24T11:21:54;23.60;99.90
60234;DHT22;49514;43.538;-5.708;2023-04-24T11:26:48;23.80;99.90
60234;DHT22;49514;43.538;-5.708;2023-04-24T11:29:14;24.20;99.90
60234;DHT22;49514;43.538;-5.708;2023-04-24T11:31:41;24.40;99.90
60234;DHT22;49514;43.538;-5.708;2023-04-24T11:34:15;24.70;99.90
60234;DHT22;49514;43.538;-5.708;2023-04-24T11:36:43;24.90;99.90
60234;DHT22;49514;43.538;-5.708;2023-04-24T11:39:09;25.20;99.90
60234;DHT22;49514;43.538;-5.708;2023-04-24T11:41:37;25.20;99.90
60234;DHT22;49514;43.538;-5.708;2023-04-24T11:44:05;25.30;99.90
60234;DHT22;49514;43.538;-5.708;2023-04-24T11:46:32;25.20;99.90
60234;DHT22;49514;43.538;-5.708;2023-04-24T11:48:58;25.10;99.90
60234;DHT22;49514;43.538;-5.708;2023-04-24T11:51:26;25.40;99.90
60234;DHT22;49514;43.538;-5.708;2023-04-24T11:53:53;25.50;99.90
60234;DHT22;49514;43.538;-5.708;2023-04-24T11:56:23;25.60;99.90
60234;DHT22;49514;43.538;-5.708;2023-04-24T11:58:53;25.80;99.90
60234;DHT22;49514;43.538;-5.708;2023-04-24T12:01:20;26.10;99.90
60234;DHT22;49514;43.538;-5.708;2023-04-24T12:03:47;26.00;99.90
60234;DHT22;49514;43.538;-5.708;2023-04-24T12:06:14;25.70;99.90
60234;DHT22;49514;43.538;-5.708;2023-04-24T12:08:41;25.70;99.90
60234;DHT22;49514;43.538;-5.708;2023-04-24T12:11:08;25.60;99.90
60234;DHT22;49514;43.538;-5.708;2023-04-24T12:13:34;25.70;99.90
60234;DHT22;49514;43.538;-5.708;2023-04-24T12:16:02;25.60;99.90
60234;DHT22;49514;43.538;-5.708;2023-04-24T12:18:29;25.20;99.90
60234;DHT22;49514;43.538;-5.708;2023-04-24T12:20:55;25.20;99.90
60234;DHT22;49514;43.538;-5.708;2023-04-24T12:23:42;25.00;99.90
60234;DHT22;49514;43.538;-5.708;2023-04-24T12:26:08;24.70;99.90
60234;DHT22;49514;43.538;-5.708;2023-04-24T12:28:35;24.20;99.90
60234;DHT22;49514;43.538;-5.708;2023-04-24T12:31:02;24.00;99.90
60234;DHT22;49514;43.538;-5.708;2023-04-24T12:33:32;23.90;99.90
60234;DHT22;49514;43.538;-5.708;2023-04-24T12:35:58;23.50;99.90
60234;DHT22;49514;43.538;-5.708;2023-04-24T12:38:26;23.40;99.90
60234;DHT22;49514;43.538;-5.708;2023-04-24T12:41:02;23.20;99.90
60234;DHT22;49514;43.538;-5.708;2023-04-24T12:43:31;23.10;99.90
60234;DHT22;49514;43.538;-5.708;2023-04-24T12:45:57;22.90;99.90
60234;DHT22;49514;43.538;-5.708;2023-04-24T12:48:28;22.90;99.90
60234;DHT22;49514;43.538;-5.708;2023-04-24T12:50:56;23.00;99.90
60234;DHT22;49514;43.538;-5.708;2023-04-24T12:53:22;23.40;99.90
60234;DHT22;49514;43.538;-5.708;2023-04-24T12:55:49;24.00;99.90
60234;DHT22;49514;43.538;-5.708;2023-04-24T12:58:19;24.50;99.90
60234;DHT22;49514;43.538;-5.708;2023-04-24T13:00:46;25.30;99.90
60234;DHT22;49514;43.538;-5.708;2023-04-24T13:03:13;25.80;99.90
60234;DHT22;49514;43.538;-5.708;2023-04-24T13:05:39;26.20;99.90
60234;DHT22;49514;43.538;-5.708;2023-04-24T13:08:06;27.00;99.90
60234;DHT22;49514;43.538;-5.708;2023-04-24T13:10:32;27.70;99.90
60234;DHT22;49514;43.538;-5.708;2023-04-24T13:12:59;28.50;99.90
60234;DHT22;49514;43.538;-5.708;2023-04-24T13:15:25;29.20;99.30
60234;DHT22;49514;43.538;-5.708;2023-04-24T13:17:52;30.30;96.70
60234;DHT22;49514;43.538;-5.708;2023-04-24T13:20:18;31.00;95.20
60234;DHT22;49514;43.538;-5.708;2023-04-24T13:22:44;30.70;93.20
60234;DHT22;49514;43.538;-5.708;2023-04-24T13:25:11;30.30;92.60
60234;DHT22;49514;43.538;-5.708;2023-04-24T13:27:40;29.80;92.70
60234;DHT22;49514;43.538;-5.708;2023-04-24T13:30:07;29.10;93.80
60234;DHT22;49514;43.538;-5.708;2023-04-24T13:32:33;28.50;92.90
60234;DHT22;49514;43.538;-5.708;2023-04-24T13:35:01;28.60;94.90
60234;DHT22;49514;43.538;-5.708;2023-04-24T13:37:28;28.70;94.50
60234;DHT22;49514;43.538;-5.708;2023-04-24T13:39:54;29.00;93.60
60234;DHT22;49514;43.538;-5.708;2023-04-24T13:42:21;31.90;93.10
60234;DHT22;49514;43.538;-5.708;2023-04-24T13:44:48;34.80;90.50
60234;DHT22;49514;43.538;-5.708;2023-04-24T13:47:14;36.50;80.30
60234;DHT22;49514;43.538;-5.708;2023-04-24T13:49:41;35.70;81.00
60234;DHT22;49514;43.538;-5.708;2023-04-24T13:52:07;35.50;80.30
60234;DHT22;49514;43.538;-5.708;2023-04-24T13:54:33;35.50;75.50
60234;DHT22;49514;43.538;-5.708;2023-04-24T13:57:00;34.90;77.30
60234;DHT22;49514;43.538;-5.708;2023-04-24T13:59:27;34.00;76.10
60234;DHT22;49514;43.538;-5.708;2023-04-24T14:01:53;32.90;79.20
60234;DHT22;49514;43.538;-5.708;2023-04-24T14:04:19;31.80;79.80
60234;DHT22;49514;43.538;-5.708;2023-04-24T14:06:46;30.40;80.60
60234;DHT22;49514;43.538;-5.708;2023-04-24T14:09:12;30.40;83.90
60234;DHT22;49514;43.538;-5.708;2023-04-24T14:11:39;31.20;85.00
60234;DHT22;49514;43.538;-5.708;2023-04-24T14:14:05;33.60;84.00
60234;DHT22;49514;43.538;-5.708;2023-04-24T14:16:33;35.10;79.30
60234;DHT22;49514;43.538;-5.708;2023-04-24T14:19:00;35.90;78.00
60234;DHT22;49514;43.538;-5.708;2023-04-24T14:21:27;36.30;76.50
60234;DHT22;49514;43.538;-5.708;2023-04-24T14:23:53;35.50;72.60
60234;DHT22;49514;43.538;-5.708;2023-04-24T14:26:20;34.70;74.60
60234;DHT22;49514;43.538;-5.708;2023-04-24T14:28:47;34.30;74.30
60234;DHT22;49514;43.538;-5.708;2023-04-24T14:31:13;34.80;74.50
60234;DHT22;49514;43.538;-5.708;2023-04-24T14:33:40;34.60;72.50
60234;DHT22;49514;43.538;-5.708;2023-04-24T14:36:07;34.30;73.30
60234;DHT22;49514;43.538;-5.708;2023-04-24T14:38:34;34.00;73.80
60234;DHT22;49514;43.538;-5.708;2023-04-24T14:41:01;33.50;73.90
60234;DHT22;49514;43.538;-5.708;2023-04-24T14:43:28;32.90;74.40
60234;DHT22;49514;43.538;-5.708;2023-04-24T14:45:55;32.40;74.80
60234;DHT22;49514;43.538;-5.708;2023-04-24T14:48:22;33.00;75.70
60234;DHT22;49514;43.538;-5.708;2023-04-24T14:50:48;34.80;74.00
60234;DHT22;49514;43.538;-5.708;2023-04-24T14:53:15;34.40;71.40
60234;DHT22;49514;43.538;-5.708;2023-04-24T14:55:42;33.90;71.40
60234;DHT22;49514;43.538;-5.708;2023-04-24T14:58:09;33.80;73.00
60234;DHT22;49514;43.538;-5.708;2023-04-24T15:00:36;33.90;72.20
60234;DHT22;49514;43.538;-5.708;2023-04-24T15:03:03;33.80;72.70
60234;DHT22;49514;43.538;-5.708;2023-04-24T15:05:29;33.00;71.90
60234;DHT22;49514;43.538;-5.708;2023-04-24T15:07:56;32.10;73.10
60234;DHT22;49514;43.538;-5.708;2023-04-24T15:10:22;31.40;73.90
60234;DHT22;49514;43.538;-5.708;2023-04-24T15:12:49;30.70;75.10
60234;DHT22;49514;43.538;-5.708;2023-04-24T15:15:16;29.60;76.40
60234;DHT22;49514;43.538;-5.708;2023-04-24T15:17:42;29.10;77.90
60234;DHT22;49514;43.538;-5.708;2023-04-24T15:20:09;28.50;84.30
60234;DHT22;49514;43.538;-5.708;2023-04-24T15:22:36;28.00;82.50
60234;DHT22;49514;43.538;-5.708;2023-04-24T15:25:02;27.60;83.00